createdAt,value
2022-08-05T00:01:27.678Z,3.22
2022-08-05T00:03:56.977Z,3.15
2022-08-05T00:06:32.288Z,4.32
2022-08-05T00:09:00.921Z,4.38
2022-08-05T00:11:34.622Z,4.65
2022-08-05T00:14:12.062Z,4.47
2022-08-05T00:16:52.448Z,4.78
2022-08-05T00:19:21.536Z,5.45
2022-08-05T00:21:49.694Z,5.68
2022-08-05T00:24:24.301Z,5.57
2022-08-05T00:26:52.996Z,6.03
2022-08-05T00:29:25.532Z,6.35
2022-08-05T00:32:13.246Z,5.65
2022-08-05T00:34:55.465Z,6.45
2022-08-05T00:37:35.762Z,6.53
2022-08-05T00:40:17.856Z,7.43
2022-08-05T00:42:55.250Z,6.88
2022-08-05T00:45:28.315Z,8.50
2022-08-05T00:48:08.317Z,6.97
2022-08-05T00:50:36.791Z,8.60
2022-08-05T00:53:09.788Z,8.88
2022-08-05T00:55:51.044Z,8.18
2022-08-05T00:58:19.149Z,7.85
2022-08-05T01:00:47.294Z,8.15
2022-08-05T01:03:22.856Z,9.18
2022-08-05T01:05:51.276Z,9.23
2022-08-05T01:08:40.930Z,8.35
2022-08-05T01:11:36.730Z,9.05
2022-08-05T01:14:27.915Z,9.50
2022-08-05T01:17:05.470Z,8.85
2022-08-05T01:20:04.351Z,10.48
2022-08-05T01:22:57.402Z,11.75
2022-08-05T01:25:39.686Z,12.68
2022-08-05T01:28:16.742Z,12.65
2022-08-05T01:31:12.103Z,14.32
2022-08-05T01:33:55.481Z,12.20
2022-08-05T01:36:28.242Z,12.88
2022-08-05T01:38:57.009Z,13.65
2022-08-05T01:41:32.526Z,14.85
2022-08-05T01:44:00.777Z,14.85
2022-08-05T01:46:41.967Z,13.38
2022-08-05T01:49:22.827Z,15.40
2022-08-05T01:51:56.443Z,15.65
2022-08-05T01:54:29.760Z,16.67
2022-08-05T01:59:47.055Z,15.68
2022-08-05T02:02:16.023Z,15.73
2022-08-05T02:04:49.720Z,19.15
2022-08-05T02:07:22.401Z,16.70
2022-08-05T02:09:53.736Z,16.33
2022-08-05T02:12:43.199Z,15.52
2022-08-05T02:15:17.344Z,15.77
2022-08-05T02:18:31.820Z,16.33
2022-08-05T02:21:15.161Z,14.10
2022-08-05T02:26:11.734Z,15.27
2022-08-05T02:28:46.007Z,13.98
2022-08-05T02:31:21.072Z,14.43
2022-08-05T02:33:57.279Z,14.68
2022-08-05T02:36:27.492Z,13.45
2022-08-05T02:38:59.443Z,13.23
2022-08-05T02:41:29.010Z,14.98
2022-08-05T02:44:13.126Z,14.45
2022-08-05T02:46:58.554Z,13.73
2022-08-05T02:49:36.813Z,13.18
2022-08-05T02:52:07.946Z,13.80
2022-08-05T02:54:37.658Z,12.82
2022-08-05T02:58:09.248Z,13.90
2022-08-05T02:59:59.492Z,12.48
2022-08-05T03:02:33.739Z,13.82
2022-08-05T03:05:01.859Z,15.60
2022-08-05T03:08:01.897Z,13.40
2022-08-05T03:10:24.418Z,14.38
2022-08-05T03:12:53.576Z,14.90
2022-08-05T03:15:23.992Z,14.73
2022-08-05T03:17:55.844Z,15.10
2022-08-05T03:20:24.333Z,15.13
2022-08-05T03:22:52.346Z,15.98
2022-08-05T03:25:34.094Z,14.90
2022-08-05T03:28:10.512Z,14.13
2022-08-05T03:30:41.070Z,13.25
2022-08-05T03:33:09.507Z,14.20
2022-08-05T03:35:41.752Z,14.90
2022-08-05T03:38:11.639Z,14.88
2022-08-05T03:40:48.482Z,14.77
2022-08-05T03:44:09.365Z,14.55
2022-08-05T03:46:04.434Z,13.88
2022-08-05T03:48:35.683Z,14.27
2022-08-05T03:52:48.981Z,13.05
2022-08-05T03:55:51.303Z,13.35
2022-08-05T03:56:59.921Z,13.57
2022-08-05T03:59:54.313Z,13.23
2022-08-05T04:02:39.152Z,13.23
2022-08-05T04:05:13.280Z,13.02
2022-08-05T04:07:57.584Z,12.38
2022-08-05T04:10:27.947Z,11.60
2022-08-05T04:12:58.783Z,13.63
2022-08-05T04:15:27.968Z,12.60
2022-08-05T04:18:06.816Z,11.85
2022-08-05T04:20:34.419Z,13.23
2022-08-05T04:23:01.668Z,13.35
2022-08-05T04:25:57.956Z,13.60
2022-08-05T04:28:15.152Z,12.48
2022-08-05T04:30:44.147Z,12.05
2022-08-05T04:33:10.900Z,11.50
2022-08-05T04:36:15.912Z,11.40
2022-08-05T04:38:39.245Z,10.23
2022-08-05T04:43:36.299Z,10.88
2022-08-05T04:46:04.584Z,10.30
2022-08-05T04:48:32.220Z,9.73
2022-08-05T04:51:03.795Z,10.13
2022-08-05T04:53:38.596Z,9.10
2022-08-05T04:56:32.765Z,9.48
2022-08-05T04:58:54.626Z,10.13
2022-08-05T05:02:05.445Z,9.00
2022-08-05T05:04:08.048Z,9.02
2022-08-05T05:06:44.553Z,8.43
2022-08-05T05:09:14.121Z,8.18
2022-08-05T05:11:55.597Z,7.70
2022-08-05T05:14:27.744Z,8.48
2022-08-05T05:16:59.986Z,7.47
2022-08-05T05:19:27.339Z,7.53
2022-08-05T05:22:03.597Z,7.70
2022-08-05T05:24:57.510Z,7.00
2022-08-05T05:27:44.587Z,6.95
2022-08-05T05:30:29.852Z,6.93
2022-08-05T05:33:08.988Z,7.30
2022-08-05T05:35:46.943Z,7.95
2022-08-05T05:38:22.560Z,7.45
2022-08-05T05:40:55.755Z,7.57
2022-08-05T05:43:54.420Z,6.78
2022-08-05T05:46:15.753Z,7.60
2022-08-05T05:48:44.007Z,8.57
2022-08-05T05:51:15.226Z,7.50
2022-08-05T05:53:45.956Z,7.57
2022-08-05T05:56:31.504Z,6.80
2022-08-05T05:59:05.060Z,6.93
2022-08-05T06:01:37.617Z,7.03
2022-08-05T06:04:12.123Z,6.60
2022-08-05T06:06:47.578Z,6.65
2022-08-05T06:09:17.440Z,6.65
2022-08-05T06:12:01.336Z,5.60
2022-08-05T06:14:30.748Z,6.32
2022-08-05T06:16:57.934Z,6.13
2022-08-05T06:19:33.876Z,7.40
2022-08-05T06:22:03.195Z,5.65
2022-08-05T06:24:30.246Z,5.55
2022-08-05T06:26:58.322Z,5.53
2022-08-05T06:29:51.989Z,5.90
2022-08-05T06:32:25.214Z,5.32
2022-08-05T06:34:56.571Z,6.73
2022-08-05T06:37:57.977Z,6.13
2022-08-05T06:40:18.143Z,6.27
2022-08-05T06:42:52.720Z,6.22
2022-08-05T06:45:44.822Z,6.45
2022-08-05T06:48:37.133Z,7.50
2022-08-05T06:50:55.091Z,6.93
2022-08-05T06:53:27.690Z,7.40
2022-08-05T06:55:57.090Z,6.85
2022-08-05T06:58:35.237Z,7.85
2022-08-05T07:01:05.821Z,6.72
2022-08-05T07:03:33.508Z,8.43
2022-08-05T07:06:06.212Z,8.45
2022-08-05T07:08:43.050Z,8.03
2022-08-05T07:11:15.929Z,9.10
2022-08-05T07:14:01.863Z,9.48
2022-08-05T07:17:56.658Z,9.48
2022-08-05T07:22:28.943Z,10.68
2022-08-05T07:25:23.514Z,9.98
2022-08-05T07:27:58.179Z,9.88
2022-08-05T07:30:34.633Z,10.80
2022-08-05T07:33:09.635Z,10.27
2022-08-05T07:36:01.877Z,8.80
2022-08-05T07:38:34.099Z,9.63
2022-08-05T07:42:09.547Z,9.57
2022-08-05T07:43:58.567Z,8.52
2022-08-05T07:46:30.777Z,8.40
2022-08-05T07:49:02.409Z,8.90
2022-08-05T07:51:48.645Z,7.55
2022-08-05T07:54:30.210Z,7.30
2022-08-05T07:57:01.894Z,6.07
2022-08-05T07:59:42.326Z,4.93
2022-08-05T08:02:16.758Z,4.82
2022-08-05T08:04:49.265Z,4.43
2022-08-05T08:07:18.242Z,4.50
2022-08-05T08:09:49.845Z,5.07
2022-08-05T08:12:37.448Z,4.50
2022-08-05T08:15:15.636Z,4.55
2022-08-05T08:17:50.600Z,4.90
2022-08-05T08:21:00.345Z,5.30
2022-08-05T08:24:03.642Z,4.95
2022-08-05T08:26:02.759Z,5.15
2022-08-05T08:28:36.155Z,5.97
2022-08-05T08:31:06.928Z,5.63
2022-08-05T08:33:36.093Z,6.57
2022-08-05T08:38:57.098Z,7.43
2022-08-05T08:41:52.244Z,6.80
2022-08-05T08:45:18.522Z,7.95
2022-08-05T08:47:21.769Z,7.93
2022-08-05T08:50:08.873Z,7.90
2022-08-05T08:52:51.866Z,7.95
2022-08-05T08:56:01.877Z,9.00
2022-08-05T08:58:08.685Z,8.40
2022-08-05T09:00:35.898Z,9.93
2022-08-05T09:03:06.492Z,9.60
2022-08-05T09:05:38.232Z,10.13
2022-08-05T09:08:06.164Z,9.05
2022-08-05T09:10:36.540Z,8.52
2022-08-05T09:13:07.281Z,8.07
2022-08-05T09:15:37.190Z,7.75
2022-08-05T09:18:08.862Z,7.03
2022-08-05T09:20:38.104Z,6.90
2022-08-05T09:23:19.191Z,6.80
2022-08-05T09:28:33.556Z,5.35
2022-08-05T09:31:22.682Z,5.18
2022-08-05T09:34:03.224Z,4.38
2022-08-05T09:36:54.608Z,5.95
2022-08-05T09:39:27.855Z,7.78
2022-08-05T09:42:08.808Z,8.50
2022-08-05T09:44:50.411Z,9.88
2022-08-05T09:47:26.003Z,10.98
2022-08-05T09:50:01.011Z,11.98
2022-08-05T09:52:36.272Z,10.82
2022-08-05T09:55:56.370Z,9.25
2022-08-05T09:58:00.647Z,9.43
2022-08-05T10:00:30.644Z,8.77
2022-08-05T10:02:58.491Z,8.63
2022-08-05T10:05:28.635Z,8.27
2022-08-05T10:08:34.770Z,7.95
2022-08-05T10:10:44.583Z,7.88
2022-08-05T10:13:12.523Z,7.22
2022-08-05T10:15:42.026Z,6.82
2022-08-05T10:18:16.787Z,7.03
2022-08-05T10:20:49.991Z,7.18
2022-08-05T10:23:34.706Z,7.28
2022-08-05T10:26:14.031Z,7.32
2022-08-05T10:28:44.076Z,7.60
2022-08-05T10:32:52.806Z,5.65
2022-08-05T10:34:00.629Z,5.45
2022-08-05T10:36:27.575Z,5.53
2022-08-05T10:39:10.543Z,5.30
2022-08-05T10:41:49.375Z,5.03
2022-08-05T10:44:20.162Z,5.60
2022-08-05T10:46:51.153Z,5.10
2022-08-05T10:49:26.570Z,5.22
2022-08-05T10:52:00.211Z,5.38
2022-08-05T10:55:04.558Z,4.47
2022-08-05T10:57:34.021Z,4.38
2022-08-05T11:00:18.619Z,4.53
2022-08-05T11:03:23.483Z,4.68
2022-08-05T11:06:08.629Z,3.47
2022-08-05T11:09:10.539Z,3.25
2022-08-05T11:11:52.195Z,3.20
2022-08-05T11:14:57.778Z,4.05
2022-08-05T11:17:57.031Z,3.53
2022-08-05T11:20:44.321Z,2.65
2022-08-05T11:23:33.158Z,2.47
2022-08-05T11:26:11.804Z,2.92
2022-08-05T11:28:42.998Z,3.08
2022-08-05T11:33:52.211Z,2.17
2022-08-05T11:36:34.316Z,2.28
2022-08-05T11:39:08.945Z,2.30
2022-08-05T11:42:01.020Z,2.20
2022-08-05T11:44:40.650Z,2.10
2022-08-05T11:47:22.093Z,1.70
2022-08-05T11:50:08.673Z,1.92
2022-08-05T11:52:35.556Z,1.90
2022-08-05T11:55:07.527Z,2.22
2022-08-05T11:57:39.275Z,2.20
2022-08-05T12:00:30.196Z,2.10
2022-08-05T12:02:57.551Z,2.05
2022-08-05T12:05:36.317Z,2.40
2022-08-05T12:08:10.192Z,2.53
2022-08-05T12:10:45.352Z,3.05
2022-08-05T12:13:27.687Z,1.83
2022-08-05T12:16:14.158Z,2.33
2022-08-05T12:18:42.622Z,2.17
2022-08-05T12:21:30.319Z,3.10
2022-08-05T12:24:04.459Z,1.63
2022-08-05T12:26:36.335Z,2.17
2022-08-05T12:29:09.468Z,2.75
2022-08-05T12:31:45.891Z,2.10
2022-08-05T12:34:21.323Z,1.83
2022-08-05T12:36:53.999Z,2.10
2022-08-05T12:39:23.745Z,2.20
2022-08-05T12:42:02.073Z,2.30
2022-08-05T12:44:34.122Z,2.45
2022-08-05T12:47:02.209Z,2.67
2022-08-05T12:50:04.494Z,2.80
2022-08-05T12:52:32.392Z,2.70
2022-08-05T12:55:17.937Z,3.03
2022-08-05T12:58:50.507Z,2.88
2022-08-05T13:02:03.683Z,2.33
2022-08-05T13:03:32.590Z,2.42
2022-08-05T13:06:06.492Z,2.33
2022-08-05T13:08:33.489Z,2.42
2022-08-05T13:11:02.095Z,2.50
2022-08-05T13:14:04.841Z,2.22
2022-08-05T13:16:17.307Z,2.58
2022-08-05T13:18:55.256Z,3.03
2022-08-05T13:21:28.465Z,2.80
2022-08-05T13:24:06.249Z,2.55
2022-08-05T13:26:35.713Z,2.65
2022-08-05T13:29:02.395Z,1.85
2022-08-05T13:31:33.992Z,2.17
2022-08-05T13:34:22.320Z,1.92
2022-08-05T13:36:55.097Z,2.22
2022-08-05T13:40:13.987Z,1.77
2022-08-05T13:42:14.318Z,1.70
2022-08-05T13:44:45.442Z,2.28
2022-08-05T13:47:35.825Z,2.20
2022-08-05T13:50:04.236Z,1.52
2022-08-05T13:52:32.303Z,1.25
2022-08-05T13:55:02.870Z,1.23
2022-08-05T13:57:51.011Z,1.15
2022-08-05T14:00:26.757Z,1.40
2022-08-05T14:02:56.314Z,1.50
2022-08-05T14:05:48.107Z,1.40
2022-08-05T14:08:19.884Z,1.58
2022-08-05T14:10:48.720Z,1.70
2022-08-05T14:13:16.124Z,1.50
2022-08-05T14:16:04.742Z,1.52
2022-08-05T14:18:29.711Z,1.40
2022-08-05T14:20:56.481Z,1.52
2022-08-05T14:23:25.414Z,1.73
2022-08-05T14:25:58.805Z,1.60
2022-08-05T14:28:30.428Z,1.67
2022-08-05T14:31:00.427Z,1.20
2022-08-05T14:33:27.825Z,1.40
2022-08-05T14:36:14.710Z,1.55
2022-08-05T14:38:41.922Z,2.17
2022-08-05T14:41:08.692Z,1.05
2022-08-05T14:44:02.529Z,1.05
2022-08-05T14:46:28.488Z,1.38
2022-08-05T14:48:58.143Z,1.42
2022-08-05T14:51:28.316Z,1.20
2022-08-05T14:54:27.046Z,0.80
2022-08-05T14:56:46.847Z,1.10
2022-08-05T14:59:14.676Z,1.30
2022-08-05T15:01:48.646Z,1.30
2022-08-05T15:04:17.497Z,1.65
2022-08-05T15:06:49.323Z,1.30
2022-08-05T15:09:52.588Z,0.80
2022-08-05T15:12:09.055Z,1.13
2022-08-05T15:14:48.120Z,1.13
2022-08-05T15:17:46.124Z,1.38
2022-08-05T15:20:18.919Z,1.10
2022-08-05T15:22:52.283Z,1.13
2022-08-05T15:25:23.559Z,1.30
2022-08-05T15:28:09.075Z,1.30
2022-08-05T15:30:41.940Z,1.60
2022-08-05T15:33:10.478Z,1.50
2022-08-05T15:35:44.925Z,1.20
2022-08-05T15:38:35.687Z,1.33
2022-08-05T15:41:21.875Z,1.40
2022-08-05T15:43:47.142Z,1.30
2022-08-05T15:46:14.179Z,1.27
2022-08-05T15:48:52.700Z,0.90
2022-08-05T15:52:12.619Z,1.40
2022-08-05T15:54:17.425Z,1.20
2022-08-05T15:56:44.208Z,1.40
2022-08-05T15:59:20.223Z,1.27
2022-08-05T16:01:53.339Z,1.50
2022-08-05T16:04:25.398Z,1.30
2022-08-05T16:06:53.810Z,1.10
2022-08-05T16:09:22.600Z,1.08
2022-08-05T16:11:52.745Z,0.80
2022-08-05T16:14:20.233Z,0.60
2022-08-05T16:16:47.581Z,0.30
2022-08-05T16:19:18.973Z,0.65
2022-08-05T16:22:03.354Z,0.40
2022-08-05T16:24:40.111Z,0.38
2022-08-05T16:27:09.426Z,0.60
2022-08-05T16:29:37.609Z,0.30
2022-08-05T16:32:06.433Z,0.17
2022-08-05T16:34:33.341Z,0.10
2022-08-05T16:37:00.093Z,0.20
2022-08-05T16:40:06.212Z,0.20
2022-08-05T16:42:18.471Z,0.30
2022-08-05T16:44:57.211Z,0.10
2022-08-05T16:47:28.595Z,0.45
2022-08-05T16:50:05.238Z,0.30
2022-08-05T16:52:33.577Z,0.30
2022-08-05T16:55:00.549Z,0.63
2022-08-05T16:57:39.965Z,0.40
2022-08-05T17:00:34.705Z,0.40
2022-08-05T17:03:02.993Z,0.20
2022-08-05T17:05:31.266Z,0.30
2022-08-05T17:07:58.065Z,0.40
2022-08-05T17:10:26.460Z,0.88
2022-08-05T17:12:58.369Z,0.28
2022-08-05T17:15:47.754Z,0.30
2022-08-05T17:18:14.316Z,0.20
2022-08-05T17:20:42.628Z,0.20
2022-08-05T17:24:03.635Z,0.45
2022-08-05T17:26:25.931Z,0.68
2022-08-05T17:30:18.850Z,0.20
2022-08-05T17:33:23.116Z,0.60
2022-08-05T17:39:41.217Z,0.40
2022-08-05T17:42:51.247Z,0.28
2022-08-05T17:45:38.641Z,0.20
2022-08-05T17:48:12.798Z,0.30
2022-08-05T17:50:53.227Z,0.35
2022-08-05T17:53:50.811Z,0.30
2022-08-05T17:56:23.560Z,0.38
2022-08-05T17:59:32.557Z,0.38
2022-08-05T18:02:17.037Z,0.20
2022-08-05T18:04:51.147Z,0.40
2022-08-05T18:07:20.440Z,0.50
2022-08-05T18:09:58.731Z,0.30
2022-08-05T18:12:27.667Z,0.68
2022-08-05T18:14:55.204Z,0.32
2022-08-05T18:17:58.776Z,0.38
2022-08-05T18:20:14.088Z,0.35
2022-08-05T18:22:46.203Z,0.10
2022-08-05T18:25:22.120Z,0.30
2022-08-05T18:27:52.203Z,0.28
2022-08-05T18:30:19.657Z,0.40
2022-08-05T18:32:53.503Z,0.40
2022-08-05T18:35:49.549Z,0.30
2022-08-05T18:38:16.529Z,0.32
2022-08-05T18:41:57.138Z,0.20
2022-08-05T18:43:37.890Z,0.28
2022-08-05T18:46:10.238Z,0.28
2022-08-05T18:48:41.825Z,0.40
2022-08-05T18:52:03.890Z,0.45
2022-08-05T18:54:14.732Z,0.47
2022-08-05T18:56:41.929Z,0.40
2022-08-05T18:59:42.874Z,0.60
2022-08-05T19:02:11.015Z,0.20
2022-08-05T19:05:01.176Z,0.30
2022-08-05T19:07:25.731Z,0.40
2022-08-05T19:09:56.849Z,0.35
2022-08-05T19:12:23.945Z,0.73
2022-08-05T19:15:00.366Z,0.20
2022-08-05T19:17:33.756Z,0.32
2022-08-05T19:20:17.794Z,0.32
2022-08-05T19:22:44.734Z,0.30
2022-08-05T19:25:21.765Z,0.35
2022-08-05T19:27:57.574Z,0.70
2022-08-05T19:30:24.285Z,0.32
2022-08-05T19:32:51.033Z,0.70
2022-08-05T19:35:17.880Z,0.70
2022-08-05T19:38:06.727Z,0.45
2022-08-05T19:40:35.302Z,0.73
2022-08-05T19:43:05.291Z,0.50
2022-08-05T19:45:36.415Z,0.70
2022-08-05T19:48:05.363Z,0.73
2022-08-05T19:50:32.696Z,1.08
2022-08-05T19:53:10.273Z,0.50
2022-08-05T19:56:14.123Z,0.90
2022-08-05T19:58:28.416Z,1.50
2022-08-05T20:00:56.587Z,0.52
2022-08-05T20:03:25.354Z,0.85
2022-08-05T20:05:56.598Z,0.52
2022-08-05T20:08:24.876Z,0.60
2022-08-05T20:10:52.325Z,0.50
2022-08-05T20:13:29.804Z,0.63
2022-08-05T20:15:57.740Z,0.52
2022-08-05T20:18:33.120Z,0.60
2022-08-05T20:21:02.455Z,0.52
2022-08-05T20:23:40.526Z,0.80
2022-08-05T20:26:18.347Z,0.70
2022-08-05T20:28:48.336Z,0.60
2022-08-05T20:31:16.488Z,0.98
2022-08-05T20:33:45.032Z,0.70
2022-08-05T20:36:14.382Z,0.73
2022-08-05T20:38:53.325Z,0.70
2022-08-05T20:41:26.669Z,1.08
2022-08-05T20:44:00.038Z,0.77
2022-08-05T20:46:29.985Z,1.00
2022-08-05T20:48:56.774Z,0.82
2022-08-05T20:51:23.468Z,0.80
2022-08-05T20:53:56.408Z,1.00
2022-08-05T20:56:29.119Z,0.93
2022-08-05T20:58:59.972Z,1.17
2022-08-05T21:01:39.052Z,1.00
2022-08-05T21:04:09.960Z,1.00
2022-08-05T21:06:38.414Z,0.88
2022-08-05T21:09:16.863Z,0.90
2022-08-05T21:12:08.963Z,1.05
2022-08-05T21:14:34.824Z,1.00
2022-08-05T21:17:05.298Z,1.02
2022-08-05T21:19:46.669Z,1.58
2022-08-05T21:22:23.028Z,0.77
2022-08-05T21:24:57.193Z,1.25
2022-08-05T21:27:24.977Z,1.30
2022-08-05T21:29:55.954Z,0.80
2022-08-05T21:32:27.189Z,0.80
2022-08-05T21:35:08.749Z,0.90
2022-08-05T21:37:42.712Z,1.00
2022-08-05T21:40:14.293Z,1.15
2022-08-05T21:42:45.142Z,1.00
2022-08-05T21:45:25.184Z,1.00
2022-08-05T21:48:01.928Z,1.10
2022-08-05T21:50:33.163Z,0.90
2022-08-05T21:53:04.888Z,0.80
2022-08-05T21:56:01.335Z,0.80
2022-08-05T21:58:31.864Z,0.90
2022-08-05T22:00:59.366Z,0.80
2022-08-05T22:03:52.088Z,1.70
2022-08-05T22:06:13.029Z,1.08
2022-08-05T22:08:42.763Z,1.30
2022-08-05T22:11:12.071Z,0.90
2022-08-05T22:14:34.437Z,1.10
2022-08-05T22:16:41.639Z,1.20
2022-08-05T22:20:00.678Z,1.20
2022-08-05T22:22:03.227Z,1.20
2022-08-05T22:24:52.201Z,1.20
2022-08-05T22:28:09.185Z,1.42
2022-08-05T22:30:34.863Z,1.48
2022-08-05T22:33:02.530Z,1.17
2022-08-05T22:35:31.121Z,1.50
2022-08-05T22:38:15.103Z,1.00
2022-08-05T22:40:42.067Z,1.27
2022-08-05T22:43:16.501Z,1.27
2022-08-05T22:46:12.046Z,1.20
2022-08-05T22:48:41.627Z,1.60
2022-08-05T22:51:08.661Z,1.60
2022-08-05T22:53:42.880Z,1.20
2022-08-05T22:56:17.036Z,1.20
2022-08-05T22:58:43.992Z,1.38
2022-08-05T23:01:10.751Z,1.30
2022-08-05T23:03:59.143Z,1.13
2022-08-05T23:06:26.604Z,1.20
2022-08-05T23:08:55.501Z,1.38
2022-08-05T23:11:42.246Z,1.38
2022-08-05T23:14:13.362Z,1.20
2022-08-05T23:16:58.687Z,1.00
2022-08-05T23:19:26.595Z,1.40
2022-08-05T23:21:53.300Z,1.15
2022-08-05T23:24:21.145Z,1.40
2022-08-05T23:26:49.233Z,1.25
2022-08-05T23:29:16.617Z,1.67
2022-08-05T23:31:46.118Z,1.08
2022-08-05T23:34:16.087Z,1.58
2022-08-05T23:36:51.537Z,1.40
2022-08-05T23:39:23.690Z,1.20
2022-08-05T23:41:59.869Z,1.05
2022-08-05T23:44:27.941Z,1.15
2022-08-05T23:46:59.295Z,1.20
2022-08-05T23:49:33.842Z,1.48
2022-08-05T23:52:21.513Z,1.35
2022-08-05T23:54:53.906Z,1.30
2022-08-05T23:57:21.140Z,1.40
